sensor_id;sensor_type;location;lat;lon;timestamp;P1;durP1;ratioP1;P2;durP2;ratioP2
78783;SDS011;68127;51.050;14.084;2023-10-09T00:00:49;6.47;;;2.90;;
78783;SDS011;68127;51.050;14.084;2023-10-09T00:03:15;7.22;;;3.65;;
78783;SDS011;68127;51.050;14.084;2023-10-09T00:05:40;6.00;;;3.17;;
78783;SDS011;68127;51.050;14.084;2023-10-09T00:08:17;6.75;;;3.20;;
78783;SDS011;68127;51.050;14.084;2023-10-09T00:10:55;7.55;;;3.67;;
78783;SDS011;68127;51.050;14.084;2023-10-09T00:13:22;7.13;;;3.42;;
78783;SDS011;68127;51.050;14.084;2023-10-09T00:15:54;8.50;;;3.30;;
78783;SDS011;68127;51.050;14.084;2023-10-09T00:18:25;8.25;;;3.70;;
78783;SDS011;68127;51.050;14.084;2023-10-09T00:20:54;10.00;;;3.10;;
78783;SDS011;68127;51.050;14.084;2023-10-09T00:23:25;8.38;;;3.30;;
78783;SDS011;68127;51.050;14.084;2023-10-09T00:25:51;6.53;;;3.17;;
78783;SDS011;68127;51.050;14.084;2023-10-09T00:28:52;7.20;;;3.22;;
78783;SDS011;68127;51.050;14.084;2023-10-09T00:31:22;5.97;;;3.00;;
78783;SDS011;68127;51.050;14.084;2023-10-09T00:33:58;7.20;;;3.20;;
78783;SDS011;68127;51.050;14.084;2023-10-09T00:36:32;6.32;;;3.20;;
78783;SDS011;68127;51.050;14.084;2023-10-09T00:38:58;6.75;;;3.00;;
78783;SDS011;68127;51.050;14.084;2023-10-09T00:41:30;8.30;;;3.22;;
78783;SDS011;68127;51.050;14.084;2023-10-09T00:44:00;6.57;;;3.17;;
78783;SDS011;68127;51.050;14.084;2023-10-09T00:46:25;6.22;;;3.00;;
78783;SDS011;68127;51.050;14.084;2023-10-09T00:48:53;9.20;;;3.05;;
78783;SDS011;68127;51.050;14.084;2023-10-09T00:51:22;8.90;;;3.78;;
78783;SDS011;68127;51.050;14.084;2023-10-09T00:53:49;6.32;;;2.90;;
78783;SDS011;68127;51.050;14.084;2023-10-09T00:56:18;10.15;;;3.20;;
78783;SDS011;68127;51.050;14.084;2023-10-09T00:58:47;6.13;;;3.17;;
78783;SDS011;68127;51.050;14.084;2023-10-09T01:01:32;7.13;;;2.92;;
78783;SDS011;68127;51.050;14.084;2023-10-09T01:04:02;6.28;;;3.20;;
78783;SDS011;68127;51.050;14.084;2023-10-09T01:09:07;7.25;;;2.90;;
78783;SDS011;68127;51.050;14.084;2023-10-09T01:11:35;7.40;;;3.17;;
78783;SDS011;68127;51.050;14.084;2023-10-09T01:14:07;5.93;;;3.00;;
78783;SDS011;68127;51.050;14.084;2023-10-09T01:16:32;9.00;;;3.50;;
78783;SDS011;68127;51.050;14.084;2023-10-09T01:18:58;9.85;;;3.33;;
78783;SDS011;68127;51.050;14.084;2023-10-09T01:21:24;7.88;;;3.40;;
78783;SDS011;68127;51.050;14.084;2023-10-09T01:23:50;8.77;;;3.50;;
78783;SDS011;68127;51.050;14.084;2023-10-09T01:26:31;7.10;;;3.03;;
78783;SDS011;68127;51.050;14.084;2023-10-09T01:29:04;7.50;;;3.20;;
78783;SDS011;68127;51.050;14.084;2023-10-09T01:31:35;6.57;;;3.30;;
78783;SDS011;68127;51.050;14.084;2023-10-09T01:34:03;8.07;;;3.25;;
78783;SDS011;68127;51.050;14.084;2023-10-09T01:36:34;7.68;;;3.55;;
78783;SDS011;68127;51.050;14.084;2023-10-09T01:39:04;5.13;;;2.90;;
78783;SDS011;68127;51.050;14.084;2023-10-09T01:41:48;8.07;;;3.00;;
78783;SDS011;68127;51.050;14.084;2023-10-09T01:44:16;7.88;;;3.45;;
78783;SDS011;68127;51.050;14.084;2023-10-09T01:46:42;9.07;;;3.90;;
78783;SDS011;68127;51.050;14.084;2023-10-09T01:49:10;8.70;;;3.47;;
78783;SDS011;68127;51.050;14.084;2023-10-09T01:51:46;8.18;;;3.63;;
78783;SDS011;68127;51.050;14.084;2023-10-09T01:54:13;5.55;;;3.17;;
78783;SDS011;68127;51.050;14.084;2023-10-09T01:56:52;7.07;;;3.33;;
78783;SDS011;68127;51.050;14.084;2023-10-09T01:59:18;5.97;;;3.58;;
78783;SDS011;68127;51.050;14.084;2023-10-09T02:01:44;6.50;;;3.58;;
78783;SDS011;68127;51.050;14.084;2023-10-09T02:04:12;6.97;;;3.78;;
78783;SDS011;68127;51.050;14.084;2023-10-09T02:06:39;8.50;;;3.55;;
78783;SDS011;68127;51.050;14.084;2023-10-09T02:09:05;8.73;;;3.85;;
78783;SDS011;68127;51.050;14.084;2023-10-09T02:11:31;8.20;;;3.22;;
78783;SDS011;68127;51.050;14.084;2023-10-09T02:14:06;6.95;;;3.75;;
78783;SDS011;68127;51.050;14.084;2023-10-09T02:16:44;7.43;;;3.35;;
78783;SDS011;68127;51.050;14.084;2023-10-09T02:19:10;6.63;;;3.60;;
78783;SDS011;68127;51.050;14.084;2023-10-09T02:21:55;7.95;;;3.25;;
78783;SDS011;68127;51.050;14.084;2023-10-09T02:24:22;10.30;;;4.07;;
78783;SDS011;68127;51.050;14.084;2023-10-09T02:26:53;6.88;;;3.55;;
78783;SDS011;68127;51.050;14.084;2023-10-09T02:29:18;7.28;;;4.00;;
78783;SDS011;68127;51.050;14.084;2023-10-09T02:31:48;10.65;;;3.45;;
78783;SDS011;68127;51.050;14.084;2023-10-09T02:34:17;8.90;;;3.42;;
78783;SDS011;68127;51.050;14.084;2023-10-09T02:36:46;9.07;;;3.58;;
78783;SDS011;68127;51.050;14.084;2023-10-09T02:39:22;6.60;;;3.30;;
78783;SDS011;68127;51.050;14.084;2023-10-09T02:41:54;6.65;;;3.60;;
78783;SDS011;68127;51.050;14.084;2023-10-09T02:44:45;7.65;;;3.28;;
78783;SDS011;68127;51.050;14.084;2023-10-09T02:47:15;7.07;;;3.90;;
78783;SDS011;68127;51.050;14.084;2023-10-09T02:49:54;7.35;;;3.28;;
78783;SDS011;68127;51.050;14.084;2023-10-09T02:52:25;6.95;;;3.80;;
78783;SDS011;68127;51.050;14.084;2023-10-09T02:54:57;7.38;;;3.85;;
78783;SDS011;68127;51.050;14.084;2023-10-09T02:57:25;7.38;;;3.35;;
78783;SDS011;68127;51.050;14.084;2023-10-09T02:59:53;8.90;;;3.53;;
78783;SDS011;68127;51.050;14.084;2023-10-09T03:02:18;6.60;;;3.72;;
78783;SDS011;68127;51.050;14.084;2023-10-09T03:04:44;7.50;;;3.60;;
78783;SDS011;68127;51.050;14.084;2023-10-09T03:07:09;7.22;;;3.67;;
78783;SDS011;68127;51.050;14.084;2023-10-09T03:09:38;7.05;;;3.92;;
78783;SDS011;68127;51.050;14.084;2023-10-09T03:12:05;9.38;;;4.40;;
78783;SDS011;68127;51.050;14.084;2023-10-09T03:14:35;10.13;;;4.30;;
78783;SDS011;68127;51.050;14.084;2023-10-09T03:17:03;7.03;;;3.75;;
78783;SDS011;68127;51.050;14.084;2023-10-09T03:19:29;8.73;;;4.85;;
78783;SDS011;68127;51.050;14.084;2023-10-09T03:21:56;10.38;;;4.57;;
78783;SDS011;68127;51.050;14.084;2023-10-09T03:24:25;7.82;;;4.25;;
78783;SDS011;68127;51.050;14.084;2023-10-09T03:26:52;9.02;;;4.60;;
78783;SDS011;68127;51.050;14.084;2023-10-09T03:29:20;8.23;;;4.80;;
78783;SDS011;68127;51.050;14.084;2023-10-09T03:31:46;9.40;;;4.72;;
78783;SDS011;68127;51.050;14.084;2023-10-09T03:34:11;10.57;;;4.93;;
78783;SDS011;68127;51.050;14.084;2023-10-09T03:36:36;10.25;;;5.03;;
78783;SDS011;68127;51.050;14.084;2023-10-09T03:39:05;9.40;;;4.95;;
78783;SDS011;68127;51.050;14.084;2023-10-09T03:41:49;9.68;;;5.28;;
78783;SDS011;68127;51.050;14.084;2023-10-09T03:44:15;9.68;;;4.75;;
78783;SDS011;68127;51.050;14.084;2023-10-09T03:46:43;9.93;;;5.40;;
78783;SDS011;68127;51.050;14.084;2023-10-09T03:49:09;8.63;;;5.15;;
78783;SDS011;68127;51.050;14.084;2023-10-09T03:51:36;10.05;;;5.78;;
78783;SDS011;68127;51.050;14.084;2023-10-09T03:54:02;12.45;;;6.13;;
78783;SDS011;68127;51.050;14.084;2023-10-09T03:56:32;10.18;;;5.90;;
78783;SDS011;68127;51.050;14.084;2023-10-09T03:58:57;10.60;;;6.57;;
78783;SDS011;68127;51.050;14.084;2023-10-09T04:01:23;10.27;;;6.20;;
78783;SDS011;68127;51.050;14.084;2023-10-09T04:03:55;10.52;;;6.03;;
78783;SDS011;68127;51.050;14.084;2023-10-09T04:06:23;11.93;;;6.72;;
78783;SDS011;68127;51.050;14.084;2023-10-09T04:11:19;12.80;;;6.72;;
78783;SDS011;68127;51.050;14.084;2023-10-09T04:13:48;11.45;;;6.75;;
78783;SDS011;68127;51.050;14.084;2023-10-09T04:16:24;10.73;;;6.78;;
78783;SDS011;68127;51.050;14.084;2023-10-09T04:19:00;13.73;;;7.50;;
78783;SDS011;68127;51.050;14.084;2023-10-09T04:21:33;11.70;;;7.38;;
78783;SDS011;68127;51.050;14.084;2023-10-09T04:24:02;11.30;;;8.13;;
78783;SDS011;68127;51.050;14.084;2023-10-09T04:26:47;14.30;;;7.60;;
78783;SDS011;68127;51.050;14.084;2023-10-09T04:29:16;13.82;;;7.90;;
78783;SDS011;68127;51.050;14.084;2023-10-09T04:31:56;12.75;;;7.32;;
78783;SDS011;68127;51.050;14.084;2023-10-09T04:34:25;10.65;;;7.57;;
78783;SDS011;68127;51.050;14.084;2023-10-09T04:36:59;13.68;;;8.15;;
78783;SDS011;68127;51.050;14.084;2023-10-09T04:39:40;13.00;;;7.22;;
78783;SDS011;68127;51.050;14.084;2023-10-09T04:42:12;13.70;;;8.20;;
78783;SDS011;68127;51.050;14.084;2023-10-09T04:44:51;14.00;;;7.28;;
78783;SDS011;68127;51.050;14.084;2023-10-09T04:47:37;13.73;;;8.30;;
78783;SDS011;68127;51.050;14.084;2023-10-09T04:50:03;12.73;;;7.65;;
78783;SDS011;68127;51.050;14.084;2023-10-09T04:52:39;13.15;;;8.30;;
78783;SDS011;68127;51.050;14.084;2023-10-09T04:55:05;12.90;;;8.23;;
78783;SDS011;68127;51.050;14.084;2023-10-09T04:57:37;14.18;;;8.15;;
78783;SDS011;68127;51.050;14.084;2023-10-09T05:00:07;12.32;;;8.57;;
78783;SDS011;68127;51.050;14.084;2023-10-09T05:03:07;15.10;;;8.63;;
78783;SDS011;68127;51.050;14.084;2023-10-09T05:05:36;16.67;;;8.93;;
78783;SDS011;68127;51.050;14.084;2023-10-09T05:08:11;13.75;;;8.07;;
78783;SDS011;68127;51.050;14.084;2023-10-09T05:10:58;14.20;;;9.20;;
78783;SDS011;68127;51.050;14.084;2023-10-09T05:18:56;15.48;;;9.68;;
78783;SDS011;68127;51.050;14.084;2023-10-09T05:21:22;14.82;;;9.05;;
78783;SDS011;68127;51.050;14.084;2023-10-09T05:23:56;15.95;;;9.13;;
78783;SDS011;68127;51.050;14.084;2023-10-09T05:26:37;12.60;;;8.88;;
78783;SDS011;68127;51.050;14.084;2023-10-09T05:29:20;18.38;;;10.88;;
78783;SDS011;68127;51.050;14.084;2023-10-09T05:31:58;15.27;;;9.50;;
78783;SDS011;68127;51.050;14.084;2023-10-09T05:34:39;14.32;;;8.98;;
78783;SDS011;68127;51.050;14.084;2023-10-09T05:37:27;15.18;;;9.50;;
78783;SDS011;68127;51.050;14.084;2023-10-09T05:40:03;16.92;;;10.07;;
78783;SDS011;68127;51.050;14.084;2023-10-09T05:42:41;28.23;;;18.40;;
78783;SDS011;68127;51.050;14.084;2023-10-09T05:45:07;34.83;;;20.67;;
78783;SDS011;68127;51.050;14.084;2023-10-09T05:47:43;28.10;;;16.60;;
78783;SDS011;68127;51.050;14.084;2023-10-09T05:50:30;62.00;;;38.85;;
78783;SDS011;68127;51.050;14.084;2023-10-09T05:52:59;19.27;;;12.95;;
78783;SDS011;68127;51.050;14.084;2023-10-09T05:55:34;21.98;;;13.35;;
78783;SDS011;68127;51.050;14.084;2023-10-09T05:58:19;19.48;;;11.73;;
78783;SDS011;68127;51.050;14.084;2023-10-09T06:01:03;20.13;;;12.52;;
78783;SDS011;68127;51.050;14.084;2023-10-09T06:03:51;18.13;;;10.88;;
78783;SDS011;68127;51.050;14.084;2023-10-09T06:06:22;16.52;;;11.13;;
78783;SDS011;68127;51.050;14.084;2023-10-09T06:09:07;114.57;;;43.70;;
78783;SDS011;68127;51.050;14.084;2023-10-09T06:11:53;55.25;;;25.25;;
78783;SDS011;68127;51.050;14.084;2023-10-09T06:14:19;45.97;;;20.70;;
78783;SDS011;68127;51.050;14.084;2023-10-09T06:16:50;27.20;;;14.68;;
78783;SDS011;68127;51.050;14.084;2023-10-09T06:19:22;25.33;;;15.00;;
78783;SDS011;68127;51.050;14.084;2023-10-09T06:21:48;19.05;;;11.77;;
78783;SDS011;68127;51.050;14.084;2023-10-09T06:24:17;24.17;;;13.55;;
78783;SDS011;68127;51.050;14.084;2023-10-09T06:26:44;18.40;;;11.93;;
78783;SDS011;68127;51.050;14.084;2023-10-09T06:29:27;18.73;;;11.50;;
78783;SDS011;68127;51.050;14.084;2023-10-09T06:32:09;17.23;;;11.20;;
78783;SDS011;68127;51.050;14.084;2023-10-09T06:37:16;19.10;;;11.27;;
78783;SDS011;68127;51.050;14.084;2023-10-09T06:39:59;17.83;;;11.95;;
78783;SDS011;68127;51.050;14.084;2023-10-09T06:42:25;17.65;;;10.77;;
78783;SDS011;68127;51.050;14.084;2023-10-09T06:45:03;17.83;;;10.90;;
78783;SDS011;68127;51.050;14.084;2023-10-09T06:47:34;15.85;;;10.82;;
78783;SDS011;68127;51.050;14.084;2023-10-09T06:50:18;16.75;;;9.65;;
78783;SDS011;68127;51.050;14.084;2023-10-09T06:52:47;18.45;;;11.65;;
78783;SDS011;68127;51.050;14.084;2023-10-09T06:55:38;19.52;;;11.15;;
78783;SDS011;68127;51.050;14.084;2023-10-09T06:58:39;22.92;;;11.73;;
78783;SDS011;68127;51.050;14.084;2023-10-09T07:01:07;16.42;;;10.57;;
78783;SDS011;68127;51.050;14.084;2023-10-09T07:03:50;17.67;;;10.98;;
78783;SDS011;68127;51.050;14.084;2023-10-09T07:06:21;20.10;;;12.13;;
78783;SDS011;68127;51.050;14.084;2023-10-09T07:08:50;18.48;;;11.27;;
78783;SDS011;68127;51.050;14.084;2023-10-09T07:11:36;17.85;;;11.07;;
78783;SDS011;68127;51.050;14.084;2023-10-09T07:14:12;18.33;;;11.88;;
78783;SDS011;68127;51.050;14.084;2023-10-09T07:17:13;16.27;;;9.95;;
78783;SDS011;68127;51.050;14.084;2023-10-09T07:19:47;19.45;;;10.57;;
78783;SDS011;68127;51.050;14.084;2023-10-09T07:22:16;17.90;;;10.45;;
78783;SDS011;68127;51.050;14.084;2023-10-09T07:24:50;17.30;;;10.65;;
78783;SDS011;68127;51.050;14.084;2023-10-09T07:27:26;20.33;;;10.32;;
78783;SDS011;68127;51.050;14.084;2023-10-09T07:30:17;17.48;;;10.95;;
78783;SDS011;68127;51.050;14.084;2023-10-09T07:33:07;16.40;;;10.27;;
78783;SDS011;68127;51.050;14.084;2023-10-09T07:35:33;17.48;;;9.93;;
78783;SDS011;68127;51.050;14.084;2023-10-09T07:38:07;19.60;;;10.27;;
78783;SDS011;68127;51.050;14.084;2023-10-09T07:40:34;18.20;;;9.68;;
78783;SDS011;68127;51.050;14.084;2023-10-09T07:43:24;19.35;;;9.98;;
78783;SDS011;68127;51.050;14.084;2023-10-09T07:46:19;14.27;;;9.18;;
78783;SDS011;68127;51.050;14.084;2023-10-09T07:49:17;18.08;;;9.68;;
78783;SDS011;68127;51.050;14.084;2023-10-09T07:51:50;18.92;;;9.80;;
78783;SDS011;68127;51.050;14.084;2023-10-09T07:54:17;17.38;;;9.77;;
78783;SDS011;68127;51.050;14.084;2023-10-09T07:56:57;18.38;;;9.52;;
78783;SDS011;68127;51.050;14.084;2023-10-09T07:59:33;17.50;;;9.75;;
78783;SDS011;68127;51.050;14.084;2023-10-09T08:02:01;19.85;;;11.40;;
78783;SDS011;68127;51.050;14.084;2023-10-09T08:04:28;18.00;;;9.90;;
78783;SDS011;68127;51.050;14.084;2023-10-09T08:07:12;20.52;;;10.75;;
78783;SDS011;68127;51.050;14.084;2023-10-09T08:09:44;24.02;;;11.73;;
78783;SDS011;68127;51.050;14.084;2023-10-09T08:12:36;20.65;;;10.38;;
78783;SDS011;68127;51.050;14.084;2023-10-09T08:15:13;18.58;;;11.15;;
78783;SDS011;68127;51.050;14.084;2023-10-09T08:17:44;20.52;;;11.15;;
78783;SDS011;68127;51.050;14.084;2023-10-09T08:20:16;21.08;;;10.95;;
78783;SDS011;68127;51.050;14.084;2023-10-09T08:22:42;19.25;;;11.15;;
78783;SDS011;68127;51.050;14.084;2023-10-09T08:25:08;19.60;;;10.85;;
78783;SDS011;68127;51.050;14.084;2023-10-09T08:27:51;20.77;;;10.98;;
78783;SDS011;68127;51.050;14.084;2023-10-09T08:30:19;24.45;;;11.40;;
78783;SDS011;68127;51.050;14.084;2023-10-09T08:32:51;20.35;;;10.82;;
78783;SDS011;68127;51.050;14.084;2023-10-09T08:35:30;22.27;;;11.32;;
78783;SDS011;68127;51.050;14.084;2023-10-09T08:38:11;21.75;;;11.23;;
78783;SDS011;68127;51.050;14.084;2023-10-09T08:43:58;23.73;;;12.48;;
78783;SDS011;68127;51.050;14.084;2023-10-09T08:46:25;24.33;;;12.98;;
78783;SDS011;68127;51.050;14.084;2023-10-09T08:48:55;22.88;;;12.70;;
78783;SDS011;68127;51.050;14.084;2023-10-09T08:51:22;22.02;;;12.18;;
78783;SDS011;68127;51.050;14.084;2023-10-09T08:53:48;23.77;;;12.13;;
78783;SDS011;68127;51.050;14.084;2023-10-09T08:56:14;23.30;;;12.93;;
78783;SDS011;68127;51.050;14.084;2023-10-09T08:58:47;24.77;;;14.20;;
78783;SDS011;68127;51.050;14.084;2023-10-09T09:01:22;26.60;;;13.90;;
78783;SDS011;68127;51.050;14.084;2023-10-09T09:03:49;28.95;;;14.35;;
78783;SDS011;68127;51.050;14.084;2023-10-09T09:06:15;27.45;;;13.65;;
78783;SDS011;68127;51.050;14.084;2023-10-09T09:08:41;28.15;;;14.98;;
78783;SDS011;68127;51.050;14.084;2023-10-09T09:11:10;26.30;;;13.77;;
78783;SDS011;68127;51.050;14.084;2023-10-09T09:13:46;27.75;;;14.48;;
78783;SDS011;68127;51.050;14.084;2023-10-09T09:16:20;29.17;;;14.10;;
78783;SDS011;68127;51.050;14.084;2023-10-09T09:21:17;23.17;;;13.05;;
78783;SDS011;68127;51.050;14.084;2023-10-09T09:23:59;25.95;;;13.43;;
78783;SDS011;68127;51.050;14.084;2023-10-09T09:26:39;22.92;;;13.13;;
78783;SDS011;68127;51.050;14.084;2023-10-09T09:29:11;25.23;;;12.45;;
78783;SDS011;68127;51.050;14.084;2023-10-09T09:31:52;27.95;;;14.40;;
78783;SDS011;68127;51.050;14.084;2023-10-09T09:34:33;21.52;;;12.77;;
78783;SDS011;68127;51.050;14.084;2023-10-09T09:37:10;23.05;;;13.88;;
78783;SDS011;68127;51.050;14.084;2023-10-09T09:39:38;24.55;;;12.88;;
78783;SDS011;68127;51.050;14.084;2023-10-09T09:42:05;22.90;;;12.80;;
78783;SDS011;68127;51.050;14.084;2023-10-09T09:44:38;25.90;;;13.00;;
78783;SDS011;68127;51.050;14.084;2023-10-09T09:47:12;25.13;;;12.87;;
78783;SDS011;68127;51.050;14.084;2023-10-09T09:49:41;22.58;;;13.13;;
78783;SDS011;68127;51.050;14.084;2023-10-09T09:52:08;22.40;;;11.82;;
78783;SDS011;68127;51.050;14.084;2023-10-09T09:54:37;21.73;;;11.75;;
78783;SDS011;68127;51.050;14.084;2023-10-09T09:57:03;20.85;;;11.18;;
78783;SDS011;68127;51.050;14.084;2023-10-09T09:59:34;22.58;;;10.98;;
78783;SDS011;68127;51.050;14.084;2023-10-09T10:02:05;19.15;;;10.57;;
78783;SDS011;68127;51.050;14.084;2023-10-09T10:04:34;18.35;;;11.25;;
78783;SDS011;68127;51.050;14.084;2023-10-09T10:07:02;20.13;;;11.73;;
78783;SDS011;68127;51.050;14.084;2023-10-09T10:09:37;25.50;;;13.25;;
78783;SDS011;68127;51.050;14.084;2023-10-09T10:12:04;21.92;;;11.57;;
78783;SDS011;68127;51.050;14.084;2023-10-09T10:17:15;24.35;;;12.90;;
78783;SDS011;68127;51.050;14.084;2023-10-09T10:22:29;21.08;;;11.95;;
78783;SDS011;68127;51.050;14.084;2023-10-09T10:24:55;21.65;;;12.48;;
78783;SDS011;68127;51.050;14.084;2023-10-09T10:27:22;26.67;;;12.00;;
78783;SDS011;68127;51.050;14.084;2023-10-09T10:35:16;23.60;;;12.15;;
78783;SDS011;68127;51.050;14.084;2023-10-09T10:37:41;21.90;;;11.60;;
78783;SDS011;68127;51.050;14.084;2023-10-09T10:40:25;25.88;;;12.02;;
78783;SDS011;68127;51.050;14.084;2023-10-09T10:43:04;21.25;;;10.88;;
78783;SDS011;68127;51.050;14.084;2023-10-09T10:45:38;20.80;;;10.93;;
78783;SDS011;68127;51.050;14.084;2023-10-09T10:48:10;21.63;;;9.82;;
78783;SDS011;68127;51.050;14.084;2023-10-09T10:50:57;15.35;;;9.55;;
78783;SDS011;68127;51.050;14.084;2023-10-09T10:53:22;12.13;;;7.47;;
78783;SDS011;68127;51.050;14.084;2023-10-09T10:55:59;17.92;;;8.63;;
78783;SDS011;68127;51.050;14.084;2023-10-09T10:58:40;14.40;;;7.18;;
78783;SDS011;68127;51.050;14.084;2023-10-09T11:01:25;14.15;;;7.68;;
78783;SDS011;68127;51.050;14.084;2023-10-09T11:04:15;11.25;;;6.45;;
78783;SDS011;68127;51.050;14.084;2023-10-09T11:06:50;12.02;;;5.15;;
78783;SDS011;68127;51.050;14.084;2023-10-09T11:09:16;10.90;;;6.00;;
78783;SDS011;68127;51.050;14.084;2023-10-09T11:11:47;10.70;;;5.40;;
78783;SDS011;68127;51.050;14.084;2023-10-09T11:14:14;11.98;;;6.05;;
78783;SDS011;68127;51.050;14.084;2023-10-09T11:16:40;11.00;;;5.85;;
78783;SDS011;68127;51.050;14.084;2023-10-09T11:19:10;12.45;;;6.70;;
78783;SDS011;68127;51.050;14.084;2023-10-09T11:22:03;11.18;;;6.80;;
78783;SDS011;68127;51.050;14.084;2023-10-09T11:24:32;12.55;;;7.20;;
78783;SDS011;68127;51.050;14.084;2023-10-09T11:27:01;15.52;;;7.20;;
78783;SDS011;68127;51.050;14.084;2023-10-09T11:29:31;20.80;;;10.52;;
78783;SDS011;68127;51.050;14.084;2023-10-09T11:32:21;15.98;;;8.50;;
78783;SDS011;68127;51.050;14.084;2023-10-09T11:38:04;18.63;;;9.30;;
78783;SDS011;68127;51.050;14.084;2023-10-09T11:40:46;15.85;;;9.02;;
78783;SDS011;68127;51.050;14.084;2023-10-09T11:43:17;15.77;;;8.68;;
78783;SDS011;68127;51.050;14.084;2023-10-09T11:45:42;17.67;;;10.38;;
78783;SDS011;68127;51.050;14.084;2023-10-09T11:48:19;17.00;;;9.57;;
78783;SDS011;68127;51.050;14.084;2023-10-09T11:51:11;15.50;;;8.95;;
78783;SDS011;68127;51.050;14.084;2023-10-09T11:53:46;15.02;;;7.93;;
78783;SDS011;68127;51.050;14.084;2023-10-09T11:56:14;17.88;;;9.60;;
78783;SDS011;68127;51.050;14.084;2023-10-09T11:58:45;17.95;;;9.20;;
78783;SDS011;68127;51.050;14.084;2023-10-09T12:01:15;19.75;;;10.50;;
78783;SDS011;68127;51.050;14.084;2023-10-09T12:03:45;16.20;;;9.13;;
78783;SDS011;68127;51.050;14.084;2023-10-09T12:06:14;17.73;;;9.80;;
78783;SDS011;68127;51.050;14.084;2023-10-09T12:08:39;17.83;;;9.63;;
78783;SDS011;68127;51.050;14.084;2023-10-09T12:11:07;23.40;;;9.43;;
78783;SDS011;68127;51.050;14.084;2023-10-09T12:13:34;15.02;;;8.73;;
78783;SDS011;68127;51.050;14.084;2023-10-09T12:16:00;19.80;;;9.82;;
78783;SDS011;68127;51.050;14.084;2023-10-09T12:18:25;17.77;;;10.50;;
78783;SDS011;68127;51.050;14.084;2023-10-09T12:20:51;18.08;;;9.00;;
78783;SDS011;68127;51.050;14.084;2023-10-09T12:23:17;15.90;;;8.63;;
78783;SDS011;68127;51.050;14.084;2023-10-09T12:25:43;18.23;;;9.95;;
78783;SDS011;68127;51.050;14.084;2023-10-09T12:28:11;14.88;;;7.70;;
78783;SDS011;68127;51.050;14.084;2023-10-09T12:30:40;14.50;;;7.63;;
78783;SDS011;68127;51.050;14.084;2023-10-09T12:33:06;14.73;;;7.72;;
78783;SDS011;68127;51.050;14.084;2023-10-09T12:35:38;16.38;;;7.53;;
78783;SDS011;68127;51.050;14.084;2023-10-09T12:38:04;13.52;;;6.97;;
78783;SDS011;68127;51.050;14.084;2023-10-09T12:40:34;14.50;;;7.55;;
78783;SDS011;68127;51.050;14.084;2023-10-09T12:43:01;13.35;;;7.38;;
78783;SDS011;68127;51.050;14.084;2023-10-09T12:45:26;14.73;;;6.88;;
78783;SDS011;68127;51.050;14.084;2023-10-09T12:47:54;12.52;;;7.32;;
78783;SDS011;68127;51.050;14.084;2023-10-09T12:50:28;12.80;;;7.43;;
78783;SDS011;68127;51.050;14.084;2023-10-09T12:52:57;11.45;;;6.43;;
78783;SDS011;68127;51.050;14.084;2023-10-09T12:55:34;10.57;;;5.75;;
78783;SDS011;68127;51.050;14.084;2023-10-09T12:58:06;10.20;;;5.50;;
78783;SDS011;68127;51.050;14.084;2023-10-09T13:00:35;9.40;;;5.35;;
78783;SDS011;68127;51.050;14.084;2023-10-09T13:03:09;11.13;;;5.85;;
78783;SDS011;68127;51.050;14.084;2023-10-09T13:05:48;11.15;;;6.13;;
78783;SDS011;68127;51.050;14.084;2023-10-09T13:08:23;10.27;;;5.68;;
78783;SDS011;68127;51.050;14.084;2023-10-09T13:10:56;10.13;;;5.15;;
78783;SDS011;68127;51.050;14.084;2023-10-09T13:13:28;10.10;;;5.20;;
78783;SDS011;68127;51.050;14.084;2023-10-09T13:16:04;9.18;;;5.05;;
78783;SDS011;68127;51.050;14.084;2023-10-09T13:18:31;8.75;;;4.97;;
78783;SDS011;68127;51.050;14.084;2023-10-09T13:20:56;7.93;;;5.00;;
78783;SDS011;68127;51.050;14.084;2023-10-09T13:23:22;8.73;;;5.25;;
78783;SDS011;68127;51.050;14.084;2023-10-09T13:25:52;8.38;;;4.97;;
78783;SDS011;68127;51.050;14.084;2023-10-09T13:28:18;11.00;;;5.43;;
78783;SDS011;68127;51.050;14.084;2023-10-09T13:30:45;11.68;;;5.78;;
78783;SDS011;68127;51.050;14.084;2023-10-09T13:33:14;9.00;;;5.03;;
78783;SDS011;68127;51.050;14.084;2023-10-09T13:35:42;8.90;;;5.50;;
78783;SDS011;68127;51.050;14.084;2023-10-09T13:38:15;10.95;;;5.88;;
78783;SDS011;68127;51.050;14.084;2023-10-09T13:40:41;9.82;;;5.47;;
78783;SDS011;68127;51.050;14.084;2023-10-09T13:43:07;8.32;;;5.10;;
78783;SDS011;68127;51.050;14.084;2023-10-09T13:45:39;8.98;;;4.80;;
78783;SDS011;68127;51.050;14.084;2023-10-09T13:48:04;8.85;;;4.75;;
78783;SDS011;68127;51.050;14.084;2023-10-09T13:50:30;10.80;;;5.40;;
78783;SDS011;68127;51.050;14.084;2023-10-09T13:52:58;10.27;;;4.90;;
78783;SDS011;68127;51.050;14.084;2023-10-09T13:55:24;8.32;;;5.13;;
78783;SDS011;68127;51.050;14.084;2023-10-09T13:57:56;7.33;;;4.57;;
78783;SDS011;68127;51.050;14.084;2023-10-09T14:00:24;9.52;;;4.75;;
78783;SDS011;68127;51.050;14.084;2023-10-09T14:03:01;7.63;;;5.00;;
78783;SDS011;68127;51.050;14.084;2023-10-09T14:05:36;8.32;;;4.47;;
78783;SDS011;68127;51.050;14.084;2023-10-09T14:08:16;7.57;;;4.57;;
78783;SDS011;68127;51.050;14.084;2023-10-09T14:10:42;10.27;;;4.80;;
78783;SDS011;68127;51.050;14.084;2023-10-09T14:13:07;7.95;;;4.63;;
78783;SDS011;68127;51.050;14.084;2023-10-09T14:15:37;6.90;;;4.30;;
78783;SDS011;68127;51.050;14.084;2023-10-09T14:18:06;8.30;;;4.90;;
78783;SDS011;68127;51.050;14.084;2023-10-09T14:20:33;7.90;;;5.03;;
78783;SDS011;68127;51.050;14.084;2023-10-09T14:23:02;8.60;;;4.30;;
78783;SDS011;68127;51.050;14.084;2023-10-09T14:25:37;9.68;;;5.00;;
78783;SDS011;68127;51.050;14.084;2023-10-09T14:28:07;7.85;;;4.90;;
78783;SDS011;68127;51.050;14.084;2023-10-09T14:30:34;8.85;;;5.00;;
78783;SDS011;68127;51.050;14.084;2023-10-09T14:33:09;7.85;;;5.03;;
78783;SDS011;68127;51.050;14.084;2023-10-09T14:35:41;8.05;;;5.30;;
78783;SDS011;68127;51.050;14.084;2023-10-09T14:38:07;8.18;;;5.15;;
78783;SDS011;68127;51.050;14.084;2023-10-09T14:40:41;8.05;;;5.05;;
78783;SDS011;68127;51.050;14.084;2023-10-09T14:43:08;7.57;;;5.05;;
78783;SDS011;68127;51.050;14.084;2023-10-09T14:45:43;8.10;;;5.32;;
78783;SDS011;68127;51.050;14.084;2023-10-09T14:48:09;9.55;;;5.47;;
78783;SDS011;68127;51.050;14.084;2023-10-09T14:50:36;7.82;;;5.45;;
78783;SDS011;68127;51.050;14.084;2023-10-09T14:53:03;9.10;;;5.85;;
78783;SDS011;68127;51.050;14.084;2023-10-09T14:55:29;7.80;;;5.10;;
78783;SDS011;68127;51.050;14.084;2023-10-09T14:57:56;12.95;;;6.85;;
78783;SDS011;68127;51.050;14.084;2023-10-09T15:00:23;9.30;;;5.57;;
78783;SDS011;68127;51.050;14.084;2023-10-09T15:02:52;7.97;;;5.20;;
78783;SDS011;68127;51.050;14.084;2023-10-09T15:05:17;7.78;;;5.15;;
78783;SDS011;68127;51.050;14.084;2023-10-09T15:07:42;8.45;;;5.30;;
78783;SDS011;68127;51.050;14.084;2023-10-09T15:10:08;8.23;;;5.22;;
78783;SDS011;68127;51.050;14.084;2023-10-09T15:12:42;11.65;;;6.50;;
78783;SDS011;68127;51.050;14.084;2023-10-09T15:15:08;9.32;;;6.07;;
78783;SDS011;68127;51.050;14.084;2023-10-09T15:17:42;10.10;;;6.15;;
78783;SDS011;68127;51.050;14.084;2023-10-09T15:20:10;10.27;;;6.43;;
78783;SDS011;68127;51.050;14.084;2023-10-09T15:22:40;9.68;;;5.95;;
78783;SDS011;68127;51.050;14.084;2023-10-09T15:25:10;8.10;;;5.32;;